^^
Station Historical Data
Daily Summary for March 2, 2017 Units:  English    Metric   Both
« Previous Day
Next Day »
Daily Weekly Monthly Yearly Custom
  High: Low: Average:
Temperature: 57.9 °F 32.4 °F 42.2 °F
Dew Point: 49.9 °F 15.8 °F 24.1 °F
Humidity: 77 % 35 % 49 %
Wind Speed: 23.5 mph 0.2 mph 11.6 mph
Wind Gust: 36.8 mph - -
Wind:- - West
Pressure: 30.16 in 29.48 in -
Precipitation: 0.01 in    
Historical Graphs
 
 
Tabular Data for March 2, 2017
Time Temperature Dew Point Pressure Wind Wind Speed Wind Gust Humidity Rainfall Rate (Hourly) solar Conditions
00:03 57.9 °F 49.7 °F 29.48 in WSW 10.0 mph 15.0 mph 74 % 0.00 in 0.0 W/m2 RA
00:09 57.7 °F 49.8 °F 29.49 in West 7.6 mph 11.0 mph 75 % 0.00 in 0.0 W/m2 RA
00:13 57.6 °F 49.7 °F 29.49 in WSW 9.4 mph 13.0 mph 75 % 0.00 in 0.0 W/m2 CLR
00:18 57.4 °F 49.9 °F 29.49 in SW 12.7 mph 19.6 mph 76 % 0.00 in 0.0 W/m2 CLR
00:24 57.2 °F 49.7 °F 29.49 in SW 7.1 mph 10.4 mph 76 % 0.00 in 0.0 W/m2 CLR
00:29 56.9 °F 49.4 °F 29.49 in WSW 5.8 mph 8.1 mph 76 % 0.00 in 0.0 W/m2 CLR
00:34 56.6 °F 49.1 °F 29.50 in WSW 7.4 mph 12.7 mph 76 % 0.00 in 0.0 W/m2 CLR
00:39 56.3 °F 49.2 °F 29.50 in SW 5.6 mph 13.8 mph 77 % 0.00 in 0.0 W/m2 CLR
00:44 56.1 °F 49.0 °F 29.50 in WSW 4.9 mph 17.0 mph 77 % 0.00 in 0.0 W/m2 CLR
00:49 55.8 °F 47.6 °F 29.50 in SW 9.3 mph 16.1 mph 74 % 0.00 in 0.0 W/m2 CLR
00:54 55.7 °F 46.1 °F 29.51 in SW 16.6 mph 26.5 mph 70 % 0.00 in 0.0 W/m2 CLR
00:59 55.7 °F 44.9 °F 29.50 in West 14.7 mph 20.7 mph 67 % 0.00 in 0.0 W/m2 CLR
01:04 55.7 °F 43.7 °F 29.51 in WSW 13.3 mph 19.6 mph 64 % 0.00 in 0.0 W/m2 CLR
01:09 55.6 °F 42.8 °F 29.51 in West 15.7 mph 28.8 mph 62 % 0.00 in 0.0 W/m2 CLR
01:14 55.5 °F 41.4 °F 29.51 in SW 10.9 mph 19.6 mph 59 % 0.00 in 0.0 W/m2 CLR
01:19 55.3 °F 41.2 °F 29.52 in WSW 8.9 mph 17.3 mph 59 % 0.00 in 0.0 W/m2 CLR
01:29 54.7 °F 40.6 °F 29.52 in WSW 10.5 mph 18.4 mph 59 % 0.00 in 0.0 W/m2 CLR
01:34 54.4 °F 40.4 °F 29.52 in WSW 7.3 mph 11.5 mph 59 % 0.00 in 0.0 W/m2 CLR
01:39 54.1 °F 39.2 °F 29.52 in West 13.5 mph 18.4 mph 57 % 0.00 in 0.0 W/m2 CLR
01:44 54.0 °F 38.2 °F 29.53 in SW 12.5 mph 19.6 mph 55 % 0.00 in 0.0 W/m2 CLR
01:49 54.1 °F 36.4 °F 29.53 in WSW 13.6 mph 20.0 mph 51 % 0.00 in 0.0 W/m2 CLR
01:54 53.9 °F 36.2 °F 29.53 in SW 8.8 mph 12.7 mph 51 % 0.00 in 0.0 W/m2 CLR
01:59 53.4 °F 36.2 °F 29.54 in SSW 11.7 mph 16.1 mph 52 % 0.00 in 0.0 W/m2 CLR
02:04 53.0 °F 35.3 °F 29.55 in WNW 19.6 mph 33.4 mph 51 % 0.00 in 0.0 W/m2 CLR
02:09 52.5 °F 32.3 °F 29.55 in WNW 16.7 mph 26.5 mph 46 % 0.00 in 0.0 W/m2 CLR
02:14 52.1 °F 31.4 °F 29.56 in West 17.7 mph 24.2 mph 45 % 0.00 in 0.0 W/m2 CLR
02:19 51.7 °F 31.0 °F 29.56 in West 15.8 mph 26.5 mph 45 % 0.00 in 0.0 W/m2 CLR
02:24 51.3 °F 30.1 °F 29.56 in West 11.9 mph 31.1 mph 44 % 0.00 in 0.0 W/m2 CLR
02:29 50.8 °F 30.7 °F 29.56 in West 12.6 mph 26.5 mph 46 % 0.00 in 0.0 W/m2 CLR
02:34 50.4 °F 30.4 °F 29.57 in SW 15.3 mph 25.3 mph 46 % 0.00 in 0.0 W/m2 CLR
02:39 50.1 °F 30.1 °F 29.56 in West 14.5 mph 20.0 mph 46 % 0.00 in 0.0 W/m2 CLR
02:44 49.7 °F 30.3 °F 29.57 in WSW 11.9 mph 21.9 mph 47 % 0.00 in 0.0 W/m2 CLR
02:49 49.5 °F 30.6 °F 29.57 in SW 9.8 mph 19.6 mph 48 % 0.00 in 0.0 W/m2 CLR
02:54 49.4 °F 30.5 °F 29.57 in WSW 12.8 mph 17.3 mph 48 % 0.00 in 0.0 W/m2 CLR
02:59 49.1 °F 30.7 °F 29.57 in SW 11.2 mph 15.0 mph 49 % 0.00 in 0.0 W/m2 CLR
03:04 48.9 °F 31.1 °F 29.57 in West 9.8 mph 15.0 mph 50 % 0.00 in 0.0 W/m2 CLR
03:09 48.6 °F 31.3 °F 29.57 in SW 8.8 mph 15.0 mph 51 % 0.00 in 0.0 W/m2 CLR
03:14 48.4 °F 30.6 °F 29.57 in SSW 10.6 mph 17.3 mph 50 % 0.00 in 0.0 W/m2 CLR
03:19 48.3 °F 30.0 °F 29.57 in West 9.4 mph 23.0 mph 49 % 0.00 in 0.0 W/m2 CLR
03:24 48.1 °F 29.8 °F 29.57 in West 10.2 mph 19.6 mph 49 % 0.00 in 0.0 W/m2 CLR
03:29 48.1 °F 29.3 °F 29.58 in West 13.6 mph 16.1 mph 48 % 0.00 in 0.0 W/m2 CLR
03:34 48.0 °F 28.7 °F 29.58 in West 16.4 mph 25.3 mph 47 % 0.00 in 0.0 W/m2 CLR
03:39 48.0 °F 28.7 °F 29.58 in West 10.1 mph 16.1 mph 47 % 0.00 in 0.0 W/m2 CLR
03:44 47.7 °F 28.9 °F 29.58 in WSW 11.4 mph 15.0 mph 48 % 0.00 in 0.0 W/m2 CLR
03:49 47.5 °F 28.8 °F 29.59 in WSW 9.8 mph 16.1 mph 48 % 0.00 in 0.0 W/m2 CLR
03:54 47.1 °F 28.9 °F 29.59 in SW 3.5 mph 9.2 mph 49 % 0.00 in 0.0 W/m2 CLR
03:59 46.9 °F 28.7 °F 29.59 in West 15.0 mph 33.4 mph 49 % 0.00 in 0.0 W/m2 CLR
04:04 47.1 °F 28.4 °F 29.59 in West 10.9 mph 15.0 mph 48 % 0.00 in 0.0 W/m2 CLR
04:09 47.0 °F 28.8 °F 29.60 in West 9.8 mph 17.3 mph 49 % 0.00 in 0.0 W/m2 CLR
04:14 46.7 °F 28.5 °F 29.60 in SW 10.9 mph 17.3 mph 49 % 0.00 in 0.0 W/m2 CLR
04:19 46.6 °F 28.9 °F 29.60 in West 10.8 mph 13.0 mph 50 % 0.00 in 0.0 W/m2 CLR
04:24 46.3 °F 29.1 °F 29.60 in West 7.4 mph 11.5 mph 51 % 0.00 in 0.0 W/m2 CLR
04:29 46.0 °F 29.3 °F 29.60 in WSW 4.7 mph 10.4 mph 52 % 0.00 in 0.0 W/m2 CLR
04:34 45.8 °F 29.6 °F 29.60 in WSW 9.2 mph 15.0 mph 53 % 0.00 in 0.0 W/m2 CLR
04:39 45.7 °F 29.5 °F 29.61 in West 9.7 mph 19.6 mph 53 % 0.00 in 0.0 W/m2 CLR
04:44 45.8 °F 30.5 °F 29.61 in WSW 11.8 mph 19.6 mph 55 % 0.00 in 0.0 W/m2 CLR
04:49 45.9 °F 31.1 °F 29.62 in WSW 16.1 mph 19.6 mph 56 % 0.00 in 0.0 W/m2 CLR
04:54 45.9 °F 31.5 °F 29.62 in WNW 14.7 mph 23.0 mph 57 % 0.00 in 0.0 W/m2 CLR
04:59 45.6 °F 31.7 °F 29.63 in SW 17.6 mph 28.8 mph 58 % 0.00 in 0.0 W/m2 CLR
05:04 45.1 °F 31.2 °F 29.63 in WSW 16.0 mph 27.6 mph 58 % 0.00 in 0.0 W/m2 CLR
05:09 44.7 °F 30.8 °F 29.63 in SW 19.0 mph 31.1 mph 58 % 0.00 in 0.0 W/m2 CLR
05:15 44.2 °F 30.8 °F 29.64 in WSW 15.2 mph 26.5 mph 59 % 0.00 in 0.0 W/m2 CLR
05:19 43.8 °F 30.8 °F 29.64 in WSW 15.3 mph 24.2 mph 60 % 0.00 in 0.0 W/m2 CLR
05:24 43.6 °F 30.6 °F 29.65 in West 14.0 mph 22.0 mph 60 % 0.00 in 0.0 W/m2 CLR
05:30 43.4 °F 30.4 °F 29.65 in West 15.2 mph 21.9 mph 60 % 0.00 in 0.0 W/m2 CLR
05:35 43.3 °F 30.7 °F 29.65 in WSW 8.6 mph 19.6 mph 61 % 0.00 in 0.0 W/m2 CLR
05:40 43.1 °F 30.6 °F 29.65 in West 16.8 mph 26.5 mph 61 % 0.00 in 0.0 W/m2 CLR
05:45 43.0 °F 30.5 °F 29.66 in West 17.2 mph 18.4 mph 61 % 0.00 in 0.0 W/m2 CLR
05:50 43.0 °F 30.9 °F 29.67 in West 8.6 mph 11.5 mph 62 % 0.00 in 0.0 W/m2 CLR
05:55 42.3 °F 31.4 °F 29.67 in West 21.2 mph 32.2 mph 65 % 0.00 in 0.0 W/m2 CLR
06:00 41.2 °F 31.1 °F 29.68 in West 9.8 mph 19.6 mph 67 % 0.01 in 0.0 W/m2 RA
06:05 40.5 °F 30.8 °F 29.67 in West 10.7 mph 23.0 mph 68 % 0.01 in 0.0 W/m2 RA
06:10 40.2 °F 30.8 °F 29.68 in West 17.9 mph 26.5 mph 69 % 0.01 in 0.0 W/m2
06:15 40.1 °F 30.7 °F 29.69 in West 9.7 mph 16.1 mph 69 % 0.01 in 0.0 W/m2
06:20 40.0 °F 30.6 °F 29.69 in SW 16.1 mph 19.6 mph 69 % 0.01 in 0.0 W/m2
06:25 40.0 °F 30.3 °F 29.69 in West 14.5 mph 19.6 mph 68 % 0.01 in 0.0 W/m2
06:30 39.8 °F 29.7 °F 29.70 in West 18.8 mph 30.0 mph 67 % 0.01 in 0.0 W/m2
06:35 39.6 °F 28.8 °F 29.70 in West 12.8 mph 20.7 mph 65 % 0.01 in 0.0 W/m2
06:40 39.4 °F 29.0 °F 29.71 in West 20.1 mph 28.8 mph 66 % 0.01 in 5.0 W/m2
06:45 39.1 °F 28.7 °F 29.71 in SW 13.0 mph 23.0 mph 66 % 0.01 in 7.0 W/m2
06:50 39.1 °F 28.7 °F 29.72 in WSW 14.4 mph 20.7 mph 66 % 0.01 in 11.0 W/m2
06:55 39.0 °F 28.2 °F 29.72 in SW 15.4 mph 24.2 mph 65 % 0.01 in 12.0 W/m2
07:00 39.1 °F 28.3 °F 29.72 in WNW 10.2 mph 19.6 mph 65 % 0.00 in 14.0 W/m2 CLR
07:05 39.1 °F 27.9 °F 29.73 in West 14.2 mph 20.7 mph 64 % 0.00 in 19.0 W/m2 CLR
07:10 39.2 °F 28.0 °F 29.74 in WNW 14.6 mph 23.0 mph 64 % 0.00 in 26.0 W/m2 CLR
07:15 39.2 °F 27.7 °F 29.74 in SW 12.7 mph 20.7 mph 63 % 0.00 in 26.0 W/m2 CLR
07:20 39.2 °F 27.3 °F 29.75 in SW 11.1 mph 18.4 mph 62 % 0.00 in 32.0 W/m2 SCT
07:25 39.2 °F 26.9 °F 29.75 in WNW 13.0 mph 18.4 mph 61 % 0.00 in 42.0 W/m2 SCT
07:30 39.1 °F 24.7 °F 29.75 in WNW 15.6 mph 19.6 mph 56 % 0.00 in 46.0 W/m2 SCT
07:35 39.1 °F 23.8 °F 29.76 in West 17.2 mph 36.8 mph 54 % 0.00 in 47.0 W/m2 SCT
07:40 39.0 °F 23.3 °F 29.76 in WNW 14.5 mph 20.7 mph 53 % 0.00 in 72.0 W/m2 FEW
07:45 39.1 °F 23.4 °F 29.76 in WNW 15.6 mph 25.3 mph 53 % 0.00 in 97.0 W/m2 CLR
07:50 39.2 °F 23.9 °F 29.76 in SSW 13.0 mph 20.7 mph 54 % 0.00 in 97.0 W/m2 SCT
07:55 39.2 °F 23.9 °F 29.77 in West 8.0 mph 21.0 mph 54 % 0.00 in 118.0 W/m2 CLR
08:00 39.3 °F 24.5 °F 29.77 in WNW 14.7 mph 25.0 mph 55 % 0.00 in 90.0 W/m2 BKN
08:05 39.3 °F 23.6 °F 29.77 in WNW 18.8 mph 28.8 mph 53 % 0.00 in 42.0 W/m2 OVC
08:10 39.2 °F 23.0 °F 29.77 in WNW 18.2 mph 26.5 mph 52 % 0.00 in 107.0 W/m2 SCT
08:15 39.3 °F 23.1 °F 29.77 in NW 16.4 mph 26.5 mph 52 % 0.00 in 107.0 W/m2 CLR
08:20 39.5 °F 23.8 °F 29.78 in NW 14.0 mph 25.3 mph 53 % 0.00 in 172.0 W/m2 CLR
08:25 39.4 °F 23.2 °F 29.78 in West 15.1 mph 23.0 mph 52 % 0.00 in 311.0 W/m2 FEW
08:30 39.3 °F 23.1 °F 29.78 in WNW 13.1 mph 22.0 mph 52 % 0.00 in 367.0 W/m2 CLR
08:35 39.4 °F 23.7 °F 29.79 in West 14.3 mph 19.6 mph 53 % 0.00 in 142.0 W/m2 CLR
08:40 39.4 °F 22.8 °F 29.79 in WNW 16.0 mph 24.2 mph 51 % 0.00 in 394.0 W/m2 CLR
08:45 39.3 °F 22.7 °F 29.80 in West 14.5 mph 25.3 mph 51 % 0.00 in 413.0 W/m2 CLR
08:50 39.3 °F 21.7 °F 29.80 in WNW 23.4 mph 29.9 mph 49 % 0.00 in 424.0 W/m2 CLR
08:55 39.3 °F 21.7 °F 29.80 in WNW 14.0 mph 27.0 mph 49 % 0.00 in 397.0 W/m2 CLR
09:00 39.8 °F 22.2 °F 29.81 in NW 19.4 mph 25.3 mph 49 % 0.00 in 462.0 W/m2 CLR
09:05 39.8 °F 22.7 °F 29.81 in NW 9.6 mph 18.4 mph 50 % 0.00 in 478.0 W/m2 CLR
09:10 39.8 °F 22.7 °F 29.81 in NW 16.6 mph 23.0 mph 50 % 0.00 in 515.0 W/m2 CLR
09:15 39.6 °F 22.0 °F 29.82 in West 15.1 mph 23.0 mph 49 % 0.00 in 494.0 W/m2 CLR
09:20 39.4 °F 21.8 °F 29.83 in NW 17.9 mph 27.6 mph 49 % 0.00 in 494.0 W/m2 CLR
09:25 39.0 °F 21.4 °F 29.83 in WNW 23.5 mph 28.8 mph 49 % 0.00 in 533.0 W/m2 CLR
09:30 38.9 °F 21.3 °F 29.84 in West 13.6 mph 26.5 mph 49 % 0.00 in 557.0 W/m2 CLR
09:35 39.3 °F 21.2 °F 29.84 in West 17.4 mph 31.1 mph 48 % 0.00 in 559.0 W/m2 CLR
09:36 39.2 °F 21.1 °F 29.84 in NW 15.6 mph 22.0 mph 48 % 0.00 in 559.0 W/m2 CLR
09:41 39.2 °F 20.6 °F 29.84 in West 16.5 mph 21.9 mph 47 % 0.00 in 578.0 W/m2 CLR
09:46 39.3 °F 20.7 °F 29.84 in WNW 22.4 mph 31.1 mph 47 % 0.00 in 582.0 W/m2 CLR
09:51 39.3 °F 20.7 °F 29.85 in West 19.1 mph 28.8 mph 47 % 0.00 in 592.0 W/m2 CLR
09:56 39.6 °F 21.0 °F 29.84 in West 14.5 mph 24.2 mph 47 % 0.00 in 608.0 W/m2 CLR
10:01 39.9 °F 21.3 °F 29.84 in WNW 15.7 mph 19.6 mph 47 % 0.00 in 640.0 W/m2 CLR
10:06 40.1 °F 22.0 °F 29.86 in NW 12.0 mph 19.6 mph 48 % 0.00 in 689.0 W/m2 CLR
10:11 40.8 °F 22.6 °F 29.86 in West 12.0 mph 16.1 mph 48 % 0.00 in 675.0 W/m2 CLR
10:16 40.8 °F 22.1 °F 29.86 in NW 17.8 mph 24.0 mph 47 % 0.00 in 666.0 W/m2 CLR
10:21 40.4 °F 21.7 °F 29.86 in West 13.3 mph 19.6 mph 47 % 0.00 in 693.0 W/m2 CLR
10:26 40.5 °F 21.3 °F 29.87 in WSW 16.7 mph 20.7 mph 46 % 0.00 in 682.0 W/m2 CLR
10:31 39.9 °F 21.3 °F 29.87 in NW 16.2 mph 19.0 mph 47 % 0.00 in 686.0 W/m2 CLR
10:36 40.1 °F 21.5 °F 29.87 in West 18.0 mph 24.2 mph 47 % 0.00 in 703.0 W/m2 CLR
10:41 40.9 °F 22.2 °F 29.87 in West 14.6 mph 20.7 mph 47 % 0.00 in 759.0 W/m2 CLR
10:46 40.9 °F 21.7 °F 29.87 in West 16.2 mph 26.5 mph 46 % 0.00 in 828.0 W/m2 CLR
10:51 40.7 °F 21.5 °F 29.88 in West 21.9 mph 27.6 mph 46 % 0.00 in 782.0 W/m2 CLR
10:56 40.6 °F 21.9 °F 29.88 in NW 17.6 mph 27.6 mph 47 % 0.00 in 246.0 W/m2 BKN
11:01 41.0 °F 21.3 °F 29.88 in WNW 13.0 mph 19.6 mph 45 % 0.00 in 802.0 W/m2 CLR
11:06 41.4 °F 21.6 °F 29.88 in WNW 15.8 mph 23.0 mph 45 % 0.00 in 171.0 W/m2 BKN
11:11 40.9 °F 21.2 °F 29.88 in West 13.5 mph 23.0 mph 45 % 0.00 in 810.0 W/m2 CLR
11:16 41.0 °F 21.8 °F 29.88 in WNW 16.7 mph 23.0 mph 46 % 0.00 in 807.0 W/m2 CLR
11:21 40.8 °F 21.1 °F 29.89 in WNW 15.9 mph 28.0 mph 45 % 0.00 in 819.0 W/m2 CLR
11:26 40.4 °F 21.2 °F 29.89 in NW 13.8 mph 21.9 mph 46 % 0.00 in 206.0 W/m2 BKN
11:31 40.9 °F 22.2 °F 29.89 in WNW 17.7 mph 25.3 mph 47 % 0.00 in 914.0 W/m2 BKN
11:36 41.5 °F 22.2 °F 29.89 in WNW 13.9 mph 25.3 mph 46 % 0.00 in 970.0 W/m2 CLR
11:41 41.3 °F 21.5 °F 29.89 in NW 13.7 mph 20.7 mph 45 % 0.00 in 824.0 W/m2 FEW
11:46 41.3 °F 22.1 °F 29.90 in West 13.8 mph 15.0 mph 46 % 0.00 in 216.0 W/m2 FEW
11:51 41.5 °F 22.2 °F 29.90 in WSW 12.0 mph 18.4 mph 46 % 0.00 in 909.0 W/m2 CLR
11:56 41.6 °F 22.3 °F 29.89 in WNW 11.9 mph 15.0 mph 46 % 0.00 in 879.0 W/m2 CLR
12:01 42.3 °F 22.4 °F 29.90 in NW 16.1 mph 27.6 mph 45 % 0.00 in 821.0 W/m2 CLR
12:06 42.0 °F 21.6 °F 29.90 in WNW 13.3 mph 23.0 mph 44 % 0.00 in 248.0 W/m2 CLR
12:11 41.6 °F 21.3 °F 29.90 in West 14.7 mph 27.0 mph 44 % 0.00 in 197.0 W/m2 CLR
12:16 41.0 °F 20.7 °F 29.91 in West 16.1 mph 25.3 mph 44 % 0.00 in 160.0 W/m2 BKN
12:21 40.4 °F 20.7 °F 29.91 in NW 18.5 mph 23.0 mph 45 % 0.00 in 819.0 W/m2 CLR
12:26 40.7 °F 21.0 °F 29.90 in West 20.6 mph 23.0 mph 45 % 0.00 in 904.0 W/m2 CLR
12:31 41.3 °F 21.5 °F 29.90 in NW 18.0 mph 29.9 mph 45 % 0.00 in 225.0 W/m2 FEW
12:36 41.5 °F 21.7 °F 29.90 in West 16.6 mph 19.6 mph 45 % 0.00 in 137.0 W/m2 BKN
12:41 41.2 °F 20.9 °F 29.90 in NW 14.2 mph 21.9 mph 44 % 0.00 in 840.0 W/m2 OVC
12:46 41.9 °F 22.1 °F 29.90 in West 7.7 mph 21.9 mph 45 % 0.00 in 874.0 W/m2 CLR
12:51 42.7 °F 22.8 °F 29.90 in WSW 12.3 mph 17.0 mph 45 % 0.00 in 861.0 W/m2 CLR
12:56 42.5 °F 22.6 °F 29.91 in West 7.1 mph 13.0 mph 45 % 0.00 in 926.0 W/m2 FEW
13:01 42.8 °F 22.4 °F 29.90 in WNW 15.3 mph 19.6 mph 44 % 0.00 in 884.0 W/m2 CLR
13:06 43.0 °F 22.0 °F 29.91 in West 11.7 mph 19.6 mph 43 % 0.00 in 928.0 W/m2 CLR
13:11 43.1 °F 22.6 °F 29.90 in West 9.7 mph 13.8 mph 44 % 0.00 in 858.0 W/m2 CLR
13:16 43.4 °F 22.4 °F 29.91 in NW 13.8 mph 23.0 mph 43 % 0.00 in 819.0 W/m2 CLR
13:21 43.5 °F 22.5 °F 29.91 in WNW 11.2 mph 15.0 mph 43 % 0.00 in 796.0 W/m2 CLR
13:26 42.9 °F 21.4 °F 29.91 in West 14.8 mph 25.3 mph 42 % 0.00 in 765.0 W/m2 CLR
13:31 43.1 °F 22.6 °F 29.91 in WNW 10.3 mph 13.8 mph 44 % 0.00 in 775.0 W/m2 CLR
13:36 43.9 °F 22.8 °F 29.91 in NW 14.1 mph 24.2 mph 43 % 0.00 in 782.0 W/m2 CLR
13:41 43.8 °F 21.6 °F 29.91 in NW 18.2 mph 21.9 mph 41 % 0.00 in 791.0 W/m2 CLR
13:46 43.6 °F 22.0 °F 29.91 in NW 10.5 mph 19.6 mph 42 % 0.00 in 703.0 W/m2 CLR
13:51 43.6 °F 21.4 °F 29.92 in NW 12.0 mph 21.9 mph 41 % 0.00 in 765.0 W/m2 CLR
13:56 42.9 °F 20.2 °F 29.92 in WNW 16.0 mph 25.3 mph 40 % 0.00 in 689.0 W/m2 CLR
14:01 42.9 °F 20.8 °F 29.92 in NW 18.3 mph 21.9 mph 41 % 0.00 in 179.0 W/m2 CLR
14:02 42.8 °F 20.7 °F 29.92 in NW 18.8 mph 28.8 mph 41 % 0.00 in 179.0 W/m2 FEW
14:07 42.6 °F 21.1 °F 29.92 in NW 12.2 mph 19.6 mph 42 % 0.00 in 775.0 W/m2 CLR
14:12 42.3 °F 20.2 °F 29.92 in NW 13.2 mph 17.3 mph 41 % 0.00 in 229.0 W/m2 FEW
14:17 42.2 °F 20.7 °F 29.93 in West 12.3 mph 20.7 mph 42 % 0.00 in 717.0 W/m2 CLR
14:22 42.7 °F 21.2 °F 29.93 in NW 13.6 mph 18.4 mph 42 % 0.00 in 657.0 W/m2 CLR
14:27 42.9 °F 21.4 °F 29.93 in NW 10.6 mph 19.6 mph 42 % 0.00 in 169.0 W/m2 OVC
14:32 42.1 °F 20.6 °F 29.93 in NW 12.9 mph 18.4 mph 42 % 0.00 in 585.0 W/m2 FEW
14:37 42.9 °F 21.9 °F 29.93 in WNW 9.8 mph 17.3 mph 43 % 0.00 in 652.0 W/m2 CLR
14:42 43.6 °F 22.5 °F 29.94 in WNW 12.0 mph 18.4 mph 43 % 0.00 in 663.0 W/m2 CLR
14:47 43.6 °F 21.4 °F 29.94 in WSW 15.6 mph 25.3 mph 41 % 0.00 in 592.0 W/m2 CLR
14:52 43.3 °F 21.1 °F 29.94 in West 16.4 mph 24.0 mph 41 % 0.00 in 589.0 W/m2 CLR
14:57 43.1 °F 21.5 °F 29.94 in West 8.5 mph 17.3 mph 42 % 0.00 in 582.0 W/m2 CLR
15:02 43.6 °F 21.4 °F 29.94 in WSW 16.7 mph 20.7 mph 41 % 0.00 in 520.0 W/m2 CLR
15:07 43.4 °F 20.7 °F 29.95 in WNW 14.4 mph 26.5 mph 40 % 0.00 in 524.0 W/m2 CLR
15:12 43.3 °F 20.6 °F 29.95 in WNW 16.0 mph 21.9 mph 40 % 0.00 in 501.0 W/m2 CLR
15:17 43.9 °F 21.7 °F 29.95 in WNW 13.1 mph 21.9 mph 41 % 0.00 in 469.0 W/m2 CLR
15:22 44.0 °F 21.2 °F 29.95 in West 11.3 mph 19.6 mph 40 % 0.00 in 452.0 W/m2 CLR
15:27 43.7 °F 20.9 °F 29.95 in WSW 14.4 mph 23.0 mph 40 % 0.00 in 436.0 W/m2 CLR
15:32 43.6 °F 21.4 °F 29.95 in WNW 9.2 mph 16.1 mph 41 % 0.00 in 406.0 W/m2 CLR
15:37 43.4 °F 20.7 °F 29.95 in West 11.5 mph 18.4 mph 40 % 0.00 in 378.0 W/m2 CLR
15:42 43.3 °F 20.6 °F 29.95 in WNW 11.8 mph 20.7 mph 40 % 0.00 in 381.0 W/m2 CLR
15:47 43.5 °F 20.7 °F 29.95 in West 12.2 mph 17.3 mph 40 % 0.00 in 366.0 W/m2 CLR
15:49 43.6 °F 20.2 °F 29.95 in West 13.0 mph 21.0 mph 39 % 0.00 in 362.0 W/m2 CLR
15:54 43.6 °F 20.2 °F 29.96 in SW 14.6 mph 17.3 mph 39 % 0.00 in 348.0 W/m2 CLR
15:59 43.2 °F 19.9 °F 29.96 in West 11.1 mph 23.0 mph 39 % 0.00 in 320.0 W/m2 CLR
16:04 43.2 °F 19.9 °F 29.96 in West 13.1 mph 18.0 mph 39 % 0.00 in 302.0 W/m2 CLR
16:09 43.4 °F 20.1 °F 29.96 in NW 9.6 mph 17.0 mph 39 % 0.00 in 287.0 W/m2 CLR
16:14 43.6 °F 19.6 °F 29.96 in WNW 11.7 mph 16.1 mph 38 % 0.00 in 265.0 W/m2 CLR
16:20 43.5 °F 19.5 °F 29.97 in West 12.5 mph 17.3 mph 38 % 0.00 in 244.0 W/m2 CLR
16:24 43.4 °F 18.8 °F 29.97 in WNW 9.7 mph 13.0 mph 37 % 0.00 in 225.0 W/m2 CLR
16:29 43.3 °F 18.7 °F 29.97 in NW 13.0 mph 19.6 mph 37 % 0.00 in 204.0 W/m2 CLR
16:35 43.3 °F 18.1 °F 29.97 in WNW 11.9 mph 19.6 mph 36 % 0.00 in 181.0 W/m2 CLR
16:40 43.2 °F 18.0 °F 29.98 in WNW 9.9 mph 13.0 mph 36 % 0.00 in 162.0 W/m2 CLR
16:45 43.1 °F 17.9 °F 29.98 in West 14.6 mph 16.0 mph 36 % 0.00 in 142.0 W/m2 CLR
16:50 42.9 °F 17.1 °F 29.98 in WNW 14.1 mph 19.6 mph 35 % 0.00 in 120.0 W/m2 CLR
16:55 42.6 °F 17.5 °F 29.99 in West 10.4 mph 19.6 mph 36 % 0.00 in 86.0 W/m2 SCT
17:00 42.4 °F 17.9 °F 29.99 in WNW 10.4 mph 16.1 mph 37 % 0.00 in 84.0 W/m2 FEW
17:05 42.4 °F 17.9 °F 30.00 in West 9.7 mph 15.0 mph 37 % 0.00 in 69.0 W/m2 FEW
17:10 42.2 °F 17.8 °F 30.00 in WNW 10.6 mph 19.6 mph 37 % 0.00 in 49.0 W/m2 SCT
17:15 42.0 °F 17.6 °F 30.00 in WNW 7.5 mph 18.4 mph 37 % 0.00 in 37.0 W/m2 SCT
17:19 41.9 °F 17.5 °F 30.01 in WNW 13.8 mph 17.3 mph 37 % 0.00 in 26.0 W/m2 BKN
17:24 41.6 °F 17.2 °F 30.01 in NW 10.2 mph 13.8 mph 37 % 0.00 in 21.0 W/m2 BKN
17:29 41.3 °F 17.6 °F 30.01 in West 6.6 mph 15.0 mph 38 % 0.00 in 18.0 W/m2 BKN
17:40 40.9 °F 17.8 °F 30.02 in NW 6.5 mph 12.7 mph 39 % 0.00 in 12.0 W/m2 BKN
17:45 40.8 °F 17.7 °F 30.02 in West 5.5 mph 10.4 mph 39 % 0.00 in 9.0 W/m2 SCT
17:50 40.6 °F 17.5 °F 30.02 in WNW 13.0 mph 20.0 mph 39 % 0.00 in 7.0 W/m2 CLR
17:55 40.4 °F 17.4 °F 30.02 in WNW 7.0 mph 17.0 mph 39 % 0.00 in 0.0 W/m2 OVC
18:00 40.1 °F 17.7 °F 30.03 in WNW 1.4 mph 10.4 mph 40 % 0.00 in 0.0 W/m2 CLR
18:05 40.0 °F 17.6 °F 30.03 in WNW 8.0 mph 17.0 mph 40 % 0.00 in 0.0 W/m2 CLR
18:10 39.8 °F 18.0 °F 30.03 in NW 6.3 mph 8.1 mph 41 % 0.00 in 0.0 W/m2 CLR
18:15 39.6 °F 17.8 °F 30.04 in WNW 6.2 mph 9.2 mph 41 % 0.00 in 0.0 W/m2 CLR
18:20 39.5 °F 18.3 °F 30.04 in NW 3.7 mph 9.0 mph 42 % 0.00 in 0.0 W/m2 CLR
18:25 39.4 °F 18.2 °F 30.04 in WNW 5.9 mph 9.2 mph 42 % 0.00 in 0.0 W/m2 CLR
18:30 39.3 °F 18.1 °F 30.05 in WNW 4.3 mph 7.0 mph 42 % 0.00 in 0.0 W/m2 CLR
18:35 39.2 °F 18.0 °F 30.05 in WNW 4.4 mph 7.0 mph 42 % 0.00 in 0.0 W/m2 CLR
18:40 39.2 °F 18.0 °F 30.06 in WNW 5.9 mph 10.4 mph 42 % 0.00 in 0.0 W/m2 CLR
18:45 39.1 °F 17.9 °F 30.06 in West 2.9 mph 3.5 mph 42 % 0.00 in 0.0 W/m2 CLR
18:50 39.1 °F 18.5 °F 30.06 in WNW 1.0 mph 8.0 mph 43 % 0.00 in 0.0 W/m2 CLR
18:55 38.9 °F 18.3 °F 30.06 in West 3.0 mph 8.0 mph 43 % 0.00 in 0.0 W/m2 CLR
19:00 38.9 °F 17.7 °F 30.07 in West 4.2 mph 10.4 mph 42 % 0.00 in 0.0 W/m2 CLR
19:05 38.9 °F 17.2 °F 30.07 in West 10.0 mph 15.0 mph 41 % 0.00 in 0.0 W/m2 CLR
19:10 39.0 °F 16.7 °F 30.08 in West 9.2 mph 12.7 mph 40 % 0.00 in 0.0 W/m2 CLR
19:15 39.0 °F 16.1 °F 30.08 in WNW 11.1 mph 12.7 mph 39 % 0.00 in 0.0 W/m2 CLR
19:20 38.9 °F 16.0 °F 30.08 in West 9.7 mph 19.0 mph 39 % 0.00 in 0.0 W/m2 CLR
19:25 38.8 °F 15.9 °F 30.08 in WNW 9.5 mph 12.7 mph 39 % 0.00 in 0.0 W/m2 CLR
19:30 38.7 °F 15.8 °F 30.08 in West 9.9 mph 15.0 mph 39 % 0.00 in 0.0 W/m2 CLR
19:35 38.7 °F 16.4 °F 30.08 in WNW 11.5 mph 17.3 mph 40 % 0.00 in 0.0 W/m2 CLR
19:40 38.6 °F 16.3 °F 30.09 in West 12.6 mph 16.1 mph 40 % 0.00 in 0.0 W/m2 CLR
19:45 38.5 °F 16.2 °F 30.09 in West 11.0 mph 17.3 mph 40 % 0.00 in 0.0 W/m2 CLR
19:50 38.4 °F 16.7 °F 30.09 in West 10.7 mph 18.4 mph 41 % 0.00 in 0.0 W/m2 CLR
19:55 38.3 °F 16.6 °F 30.09 in WNW 12.9 mph 17.3 mph 41 % 0.00 in 0.0 W/m2 CLR
20:00 38.2 °F 16.5 °F 30.09 in WNW 11.3 mph 15.0 mph 41 % 0.00 in 0.0 W/m2 CLR
20:05 38.1 °F 16.4 °F 30.09 in WNW 8.0 mph 12.7 mph 41 % 0.00 in 0.0 W/m2 CLR
20:10 38.0 °F 16.9 °F 30.10 in WNW 9.5 mph 15.0 mph 42 % 0.00 in 0.0 W/m2 CLR
20:15 37.8 °F 16.7 °F 30.10 in West 6.0 mph 9.2 mph 42 % 0.00 in 0.0 W/m2 CLR
20:20 37.7 °F 17.2 °F 30.10 in West 10.1 mph 16.1 mph 43 % 0.00 in 0.0 W/m2 CLR
20:25 37.6 °F 17.1 °F 30.10 in West 9.3 mph 16.1 mph 43 % 0.00 in 0.0 W/m2 CLR
20:30 37.5 °F 17.0 °F 30.10 in West 13.5 mph 19.6 mph 43 % 0.00 in 0.0 W/m2 CLR
20:35 37.4 °F 16.9 °F 30.11 in WNW 8.1 mph 13.8 mph 43 % 0.00 in 0.0 W/m2 CLR
20:40 37.3 °F 16.8 °F 30.11 in WNW 9.0 mph 15.0 mph 43 % 0.00 in 0.0 W/m2 CLR
20:45 37.2 °F 17.3 °F 30.11 in West 8.9 mph 16.1 mph 44 % 0.00 in 0.0 W/m2 CLR
20:50 37.1 °F 17.2 °F 30.11 in WNW 7.2 mph 11.5 mph 44 % 0.00 in 0.0 W/m2 CLR
20:55 36.9 °F 17.5 °F 30.11 in West 2.4 mph 6.9 mph 45 % 0.00 in 0.0 W/m2 CLR
21:00 36.5 °F 18.2 °F 30.12 in West 6.4 mph 12.7 mph 47 % 0.00 in 0.0 W/m2 CLR
21:05 36.4 °F 18.1 °F 30.12 in West 7.9 mph 14.0 mph 47 % 0.00 in 0.0 W/m2 CLR
21:10 36.4 °F 17.6 °F 30.12 in WNW 8.7 mph 11.5 mph 46 % 0.00 in 0.0 W/m2 CLR
21:15 36.3 °F 18.0 °F 30.13 in WNW 7.9 mph 11.5 mph 47 % 0.00 in 0.0 W/m2 CLR
21:20 36.0 °F 18.7 °F 30.13 in West 4.9 mph 9.2 mph 49 % 0.00 in 0.0 W/m2 CLR
21:25 35.7 °F 18.4 °F 30.13 in West 7.6 mph 15.0 mph 49 % 0.00 in 0.0 W/m2 CLR
21:30 35.7 °F 17.9 °F 30.13 in West 9.5 mph 15.0 mph 48 % 0.00 in 0.0 W/m2 CLR
21:35 35.6 °F 18.3 °F 30.14 in West 4.8 mph 6.9 mph 49 % 0.00 in 0.0 W/m2 CLR
21:40 35.3 °F 18.5 °F 30.14 in West 5.0 mph 11.5 mph 50 % 0.00 in 0.0 W/m2 CLR
21:45 35.1 °F 17.8 °F 30.13 in WSW 10.3 mph 16.1 mph 49 % 0.00 in 0.0 W/m2 CLR
21:50 35.2 °F 17.9 °F 30.14 in West 9.8 mph 15.0 mph 49 % 0.00 in 0.0 W/m2 CLR
21:55 35.3 °F 17.5 °F 30.14 in WNW 7.1 mph 11.5 mph 48 % 0.00 in 0.0 W/m2 CLR
22:00 35.3 °F 17.5 °F 30.14 in West 6.9 mph 12.7 mph 48 % 0.00 in 0.0 W/m2 CLR
22:05 35.2 °F 17.0 °F 30.14 in West 6.1 mph 10.0 mph 47 % 0.00 in 0.0 W/m2 CLR
22:10 35.1 °F 16.9 °F 30.14 in NW 5.4 mph 12.7 mph 47 % 0.00 in 0.0 W/m2 CLR
22:15 35.0 °F 17.3 °F 30.14 in WSW 6.6 mph 11.5 mph 48 % 0.00 in 0.0 W/m2 CLR
22:20 34.9 °F 17.2 °F 30.14 in West 7.0 mph 11.5 mph 48 % 0.00 in 0.0 W/m2 CLR
22:25 34.7 °F 17.0 °F 30.14 in WSW 3.4 mph 7.0 mph 48 % 0.00 in 0.0 W/m2 CLR
22:30 34.5 °F 17.3 °F 30.14 in West 4.5 mph 10.4 mph 49 % 0.00 in 0.0 W/m2 CLR
22:35 34.3 °F 17.1 °F 30.15 in West 5.0 mph 11.5 mph 49 % 0.00 in 0.0 W/m2 CLR
22:40 34.1 °F 17.4 °F 30.14 in West 3.3 mph 6.9 mph 50 % 0.00 in 0.0 W/m2 CLR
22:45 34.0 °F 17.3 °F 30.15 in West 7.7 mph 11.5 mph 50 % 0.00 in 0.0 W/m2 CLR
22:50 34.0 °F 17.3 °F 30.15 in WSW 7.6 mph 11.5 mph 50 % 0.00 in 0.0 W/m2 CLR
22:55 34.0 °F 17.3 °F 30.15 in WNW 3.6 mph 8.1 mph 50 % 0.00 in 0.0 W/m2 CLR
23:00 33.7 °F 17.0 °F 30.15 in West 1.5 mph 3.5 mph 50 % 0.00 in 0.0 W/m2 CLR
23:05 33.3 °F 17.5 °F 30.15 in West 0.2 mph 1.2 mph 52 % 0.00 in 0.0 W/m2 CLR
23:10 33.0 °F 17.7 °F 30.15 in West 4.2 mph 7.0 mph 53 % 0.00 in 0.0 W/m2 CLR
23:15 32.8 °F 17.5 °F 30.15 in West 3.5 mph 6.9 mph 53 % 0.00 in 0.0 W/m2 CLR
23:20 32.7 °F 17.4 °F 30.15 in West 3.4 mph 4.6 mph 53 % 0.00 in 0.0 W/m2 CLR
23:25 32.6 °F 17.3 °F 30.15 in West 5.0 mph 8.1 mph 53 % 0.00 in 0.0 W/m2 CLR
23:30 32.6 °F 17.3 °F 30.15 in West 3.2 mph 7.0 mph 53 % 0.00 in 0.0 W/m2 CLR
23:35 32.6 °F 17.3 °F 30.15 in West 4.6 mph 10.4 mph 53 % 0.00 in 0.0 W/m2 CLR
23:40 32.6 °F 17.3 °F 30.15 in West 2.2 mph 5.8 mph 53 % 0.00 in 0.0 W/m2 CLR
23:45 32.5 °F 17.2 °F 30.15 in West 4.4 mph 6.9 mph 53 % 0.00 in 0.0 W/m2 CLR
23:50 32.4 °F 17.2 °F 30.16 in WNW 2.9 mph 4.0 mph 53 % 0.00 in 0.0 W/m2 CLR
23:55 32.5 °F 17.7 °F 30.16 in WNW 2.0 mph 4.6 mph 54 % 0.00 in 0.0 W/m2 CLR
Air Products Campus Weather
Compliments of Weather Underground - 3.5 mb